createdAt,value
2017-11-18T00:01:46.690Z,6.93
2017-11-18T00:04:14.145Z,6.81
2017-11-18T00:06:41.609Z,6.75
2017-11-18T00:09:09.108Z,6.81
2017-11-18T00:11:36.565Z,6.95
2017-11-18T00:14:04.052Z,7.04
2017-11-18T00:16:31.516Z,7.10
2017-11-18T00:18:58.993Z,6.88
2017-11-18T00:21:26.448Z,6.91
2017-11-18T00:23:53.932Z,7.20
2017-11-18T00:26:21.402Z,7.12
2017-11-18T00:28:48.959Z,6.96
2017-11-18T00:31:16.425Z,7.12
2017-11-18T00:33:43.946Z,6.97
2017-11-18T00:36:11.408Z,7.16
2017-11-18T00:38:38.917Z,7.39
2017-11-18T00:41:06.384Z,7.20
2017-11-18T00:43:33.865Z,7.16
2017-11-18T00:46:01.316Z,7.08
2017-11-18T00:48:28.813Z,7.03
2017-11-18T00:50:56.278Z,7.00
2017-11-18T00:53:23.751Z,6.87
2017-11-18T00:55:51.297Z,6.81
2017-11-18T00:58:18.796Z,6.91
2017-11-18T01:00:46.305Z,6.84
2017-11-18T01:03:13.757Z,6.89
2017-11-18T01:05:41.247Z,6.93
2017-11-18T01:08:08.706Z,6.89
2017-11-18T01:10:36.190Z,7.19
2017-11-18T01:13:03.675Z,7.25
2017-11-18T01:15:31.169Z,7.54
2017-11-18T01:17:58.630Z,7.55
2017-11-18T01:20:26.123Z,7.76
2017-11-18T01:22:53.594Z,7.61
2017-11-18T01:25:21.079Z,7.74
2017-11-18T01:27:48.546Z,7.37
2017-11-18T01:30:16.043Z,7.23
2017-11-18T01:32:43.549Z,7.60
2017-11-18T01:35:11.108Z,7.64
2017-11-18T01:37:38.568Z,7.21
2017-11-18T01:40:06.029Z,7.12
2017-11-18T01:42:33.516Z,7.20
2017-11-18T01:45:01.031Z,7.17
2017-11-18T01:47:28.507Z,7.26
2017-11-18T01:49:55.964Z,7.03
2017-11-18T01:52:23.453Z,6.83
2017-11-18T01:54:50.912Z,6.75
2017-11-18T01:57:18.423Z,6.69
2017-11-18T01:59:45.979Z,6.78
2017-11-18T02:05:13.176Z,6.62
2017-11-18T02:07:40.653Z,6.55
2017-11-18T02:10:08.116Z,6.47
2017-11-18T02:12:35.676Z,6.82
2017-11-18T02:15:03.136Z,6.93
2017-11-18T02:17:30.604Z,6.87
2017-11-18T02:19:58.068Z,6.66
2017-11-18T02:22:25.664Z,6.44
2017-11-18T02:24:53.151Z,6.39
2017-11-18T02:27:20.648Z,6.41
2017-11-18T02:29:48.217Z,6.66
2017-11-18T02:32:15.673Z,6.95
2017-11-18T02:34:43.242Z,6.86
2017-11-18T02:37:10.697Z,6.74
2017-11-18T02:39:38.188Z,6.85
2017-11-18T02:42:05.716Z,6.86
2017-11-18T02:44:33.204Z,6.43
2017-11-18T02:47:00.671Z,6.31
2017-11-18T02:49:28.155Z,6.11
2017-11-18T02:51:55.609Z,6.72
2017-11-18T02:54:23.185Z,6.31
2017-11-18T02:56:50.747Z,6.17
2017-11-18T02:59:18.226Z,6.43
2017-11-18T03:01:45.784Z,6.42
2017-11-18T03:04:13.293Z,6.03
2017-11-18T03:06:40.778Z,5.99
2017-11-18T03:09:08.273Z,5.76
2017-11-18T03:11:35.739Z,6.00
2017-11-18T03:14:03.227Z,6.21
2017-11-18T03:16:30.692Z,6.11
2017-11-18T03:18:58.198Z,5.91
2017-11-18T03:21:25.738Z,6.03
2017-11-18T03:23:53.194Z,6.32
2017-11-18T03:26:20.684Z,6.21
2017-11-18T03:28:48.146Z,6.25
2017-11-18T03:31:15.630Z,6.08
2017-11-18T03:33:43.097Z,5.90
2017-11-18T03:36:10.583Z,5.80
2017-11-18T03:38:38.056Z,5.59
2017-11-18T03:41:05.539Z,5.56
2017-11-18T03:43:33.018Z,5.65
2017-11-18T03:46:00.516Z,6.05
2017-11-18T03:48:28.050Z,5.86
2017-11-18T03:50:55.524Z,5.84
2017-11-18T03:53:23.078Z,6.00
2017-11-18T03:55:50.623Z,5.63
2017-11-18T03:58:18.114Z,5.38
2017-11-18T04:00:51.226Z,5.56
2017-11-18T04:03:18.727Z,6.17
2017-11-18T04:05:46.204Z,6.21
2017-11-18T04:08:13.696Z,5.86
2017-11-18T04:10:41.149Z,6.10
2017-11-18T04:13:08.634Z,5.65
2017-11-18T04:15:36.093Z,5.79
2017-11-18T04:18:03.573Z,5.47
2017-11-18T04:20:31.133Z,5.60
2017-11-18T04:22:58.620Z,5.73
2017-11-18T04:25:26.081Z,5.37
2017-11-18T04:27:53.594Z,5.30
2017-11-18T04:30:21.059Z,5.15
2017-11-18T04:32:48.526Z,5.05
2017-11-18T04:35:16.006Z,5.54
2017-11-18T04:37:43.581Z,5.32
2017-11-18T04:40:11.067Z,5.79
2017-11-18T04:42:38.572Z,5.90
2017-11-18T04:45:06.071Z,5.61
2017-11-18T04:47:33.528Z,5.79
2017-11-18T04:50:01.018Z,5.60
2017-11-18T04:52:28.478Z,5.54
2017-11-18T04:54:56.032Z,5.87
2017-11-18T04:57:23.499Z,5.90
2017-11-18T04:59:50.977Z,5.63
2017-11-18T05:02:18.504Z,5.36
2017-11-18T05:04:45.990Z,5.41
2017-11-18T05:07:13.535Z,5.53
2017-11-18T05:09:41.077Z,5.52
2017-11-18T05:12:09.221Z,5.93
2017-11-18T05:14:36.706Z,5.12
2017-11-18T05:17:04.271Z,5.34
2017-11-18T05:19:31.732Z,5.44
2017-11-18T05:21:59.222Z,5.15
2017-11-18T05:24:26.687Z,4.93
2017-11-18T05:26:54.165Z,5.11
2017-11-18T05:29:21.654Z,5.38
2017-11-18T05:31:49.139Z,5.02
2017-11-18T05:34:16.698Z,5.47
2017-11-18T05:36:44.190Z,5.67
2017-11-18T05:39:11.640Z,5.42
2017-11-18T05:41:39.139Z,4.81
2017-11-18T05:44:06.611Z,5.13
2017-11-18T05:46:34.162Z,5.05
2017-11-18T05:49:01.731Z,5.31
2017-11-18T05:51:29.294Z,4.72
2017-11-18T05:53:56.762Z,4.94
2017-11-18T05:56:24.229Z,5.08
2017-11-18T05:58:51.750Z,5.17
2017-11-18T06:01:19.233Z,5.38
2017-11-18T06:03:46.708Z,5.08
2017-11-18T06:06:14.163Z,5.18
2017-11-18T06:08:41.671Z,4.89
2017-11-18T06:11:09.127Z,5.25
2017-11-18T06:13:36.689Z,5.10
2017-11-18T06:16:04.146Z,5.27
2017-11-18T06:18:31.629Z,5.11
2017-11-18T06:20:59.157Z,4.87
2017-11-18T06:23:26.625Z,4.97
2017-11-18T06:25:54.198Z,4.92
2017-11-18T06:28:21.747Z,4.73
2017-11-18T06:30:49.226Z,5.05
2017-11-18T06:33:16.728Z,4.65
2017-11-18T06:35:44.200Z,4.38
2017-11-18T06:38:11.669Z,4.37
2017-11-18T06:40:39.140Z,4.66
2017-11-18T06:43:06.676Z,4.30
2017-11-18T06:45:34.157Z,4.41
2017-11-18T06:48:01.613Z,4.51
2017-11-18T06:50:29.085Z,4.36
2017-11-18T06:52:56.604Z,4.31
2017-11-18T06:55:24.183Z,4.51
2017-11-18T06:57:51.725Z,4.48
2017-11-18T07:00:19.334Z,4.19
2017-11-18T07:02:46.805Z,4.15
2017-11-18T07:05:14.295Z,4.05
2017-11-18T07:07:41.772Z,4.17
2017-11-18T07:10:09.320Z,4.52
2017-11-18T07:12:36.814Z,4.65
2017-11-18T07:15:04.284Z,4.52
2017-11-18T07:17:31.785Z,4.32
2017-11-18T07:19:59.240Z,4.24
2017-11-18T07:22:26.714Z,4.60
2017-11-18T07:24:54.177Z,4.17
2017-11-18T07:27:21.662Z,4.14
2017-11-18T07:29:49.173Z,4.49
2017-11-18T07:32:16.743Z,4.14
2017-11-18T07:34:44.215Z,3.95
2017-11-18T07:37:11.694Z,3.96
2017-11-18T07:39:39.166Z,3.93
2017-11-18T07:42:06.628Z,3.93
2017-11-18T07:44:34.122Z,4.29
2017-11-18T07:47:01.682Z,4.61
2017-11-18T07:49:29.156Z,4.50
2017-11-18T07:51:56.654Z,4.51
2017-11-18T07:54:24.178Z,4.06
2017-11-18T07:56:51.637Z,3.93
2017-11-18T07:59:19.159Z,3.92
2017-11-18T08:01:46.669Z,4.01
2017-11-18T08:04:14.179Z,4.01
2017-11-18T08:06:41.752Z,3.90
2017-11-18T08:09:09.240Z,3.91
2017-11-18T08:11:38.217Z,3.73
2017-11-18T08:14:05.714Z,3.73
2017-11-18T08:16:33.250Z,3.83
2017-11-18T08:19:00.709Z,4.13
2017-11-18T08:21:28.210Z,4.35
2017-11-18T08:23:55.679Z,4.22
2017-11-18T08:26:23.246Z,4.14
2017-11-18T08:28:50.730Z,3.91
2017-11-18T08:31:18.243Z,4.23
2017-11-18T08:33:45.811Z,4.44
2017-11-18T08:36:25.092Z,4.30
2017-11-18T08:38:52.575Z,4.57
2017-11-18T08:41:20.063Z,4.41
2017-11-18T08:43:47.614Z,4.56
2017-11-18T08:46:15.101Z,4.60
2017-11-18T08:48:42.577Z,5.06
2017-11-18T08:51:10.044Z,4.62
2017-11-18T08:53:37.517Z,4.89
2017-11-18T08:56:05.000Z,5.13
2017-11-18T08:58:32.492Z,4.83
2017-11-18T09:00:59.956Z,5.00
2017-11-18T09:03:27.453Z,5.46
2017-11-18T09:05:54.910Z,5.50
2017-11-18T09:08:22.394Z,4.77
2017-11-18T09:10:49.954Z,5.42
2017-11-18T09:13:17.529Z,5.29
2017-11-18T09:15:45.034Z,5.28
2017-11-18T09:18:12.494Z,5.24
2017-11-18T09:20:39.965Z,5.14
2017-11-18T09:23:07.425Z,5.43
2017-11-18T09:25:34.922Z,5.49
2017-11-18T09:28:02.381Z,5.78
2017-11-18T09:30:29.853Z,5.82
2017-11-18T09:32:57.318Z,6.15
2017-11-18T09:35:24.808Z,5.69
2017-11-18T09:37:52.266Z,6.11
2017-11-18T09:40:19.764Z,6.31
2017-11-18T09:42:47.302Z,6.39
2017-11-18T09:45:14.795Z,6.39
2017-11-18T09:47:42.275Z,6.92
2017-11-18T09:50:09.739Z,6.95
2017-11-18T09:52:37.219Z,6.74
2017-11-18T09:55:04.779Z,6.66
2017-11-18T09:57:32.261Z,6.77
2017-11-18T09:59:59.794Z,7.04
2017-11-18T10:02:27.338Z,6.86
2017-11-18T10:04:54.806Z,7.01
2017-11-18T10:07:22.280Z,6.87
2017-11-18T10:09:49.731Z,6.98
2017-11-18T10:12:17.205Z,6.79
2017-11-18T10:14:44.680Z,6.90
2017-11-18T10:17:12.193Z,6.80
2017-11-18T10:19:39.654Z,6.82
2017-11-18T10:22:07.106Z,6.81
2017-11-18T10:24:34.587Z,6.92
2017-11-18T10:27:02.036Z,6.74
2017-11-18T10:29:29.518Z,6.93
2017-11-18T10:31:56.977Z,7.07
2017-11-18T10:34:24.443Z,7.07
2017-11-18T10:36:51.898Z,7.11
2017-11-18T10:39:19.376Z,7.68
2017-11-18T10:41:46.831Z,7.29
2017-11-18T10:44:14.310Z,7.39
2017-11-18T10:46:41.767Z,7.52
2017-11-18T10:49:09.258Z,7.45
2017-11-18T10:51:36.782Z,7.45
2017-11-18T10:54:04.266Z,7.43
2017-11-18T10:56:31.794Z,7.66
2017-11-18T10:58:59.274Z,7.73
2017-11-18T11:01:26.814Z,7.87
2017-11-18T11:03:54.291Z,7.68
2017-11-18T11:06:21.777Z,7.68
2017-11-18T11:08:49.261Z,7.53
2017-11-18T11:11:16.765Z,7.56
2017-11-18T11:13:44.229Z,7.57
2017-11-18T11:16:11.697Z,7.66
2017-11-18T11:18:39.190Z,7.61
2017-11-18T11:21:06.888Z,7.78
2017-11-18T11:23:34.346Z,8.02
2017-11-18T11:26:01.840Z,8.24
2017-11-18T11:28:29.358Z,8.08
2017-11-18T11:30:56.850Z,8.27
2017-11-18T11:33:24.314Z,8.17
2017-11-18T11:35:51.855Z,8.22
2017-11-18T11:38:19.328Z,8.30
2017-11-18T11:40:46.832Z,8.34
2017-11-18T11:43:14.288Z,8.35
2017-11-18T11:45:41.744Z,8.18
2017-11-18T11:48:09.209Z,7.98
2017-11-18T11:50:36.666Z,8.02
2017-11-18T11:53:04.209Z,7.98
2017-11-18T11:55:31.657Z,7.95
2017-11-18T11:57:59.140Z,7.94
2017-11-18T12:00:26.618Z,7.88
2017-11-18T12:02:54.102Z,7.89
2017-11-18T12:05:21.560Z,7.89
2017-11-18T12:07:49.016Z,7.97
2017-11-18T12:10:16.491Z,7.81
2017-11-18T12:12:43.986Z,7.77
2017-11-18T12:15:11.477Z,7.61
2017-11-18T12:17:38.925Z,7.54
2017-11-18T12:20:06.451Z,7.58
2017-11-18T12:22:33.904Z,7.53
2017-11-18T12:25:01.373Z,7.48
2017-11-18T12:27:28.826Z,7.42
2017-11-18T12:29:56.292Z,7.58
2017-11-18T12:32:23.742Z,7.49
2017-11-18T12:34:51.293Z,7.54
2017-11-18T12:37:18.742Z,7.57
2017-11-18T12:39:46.236Z,7.45
2017-11-18T12:42:13.690Z,7.53
2017-11-18T12:44:41.150Z,7.42
2017-11-18T12:47:08.679Z,7.54
2017-11-18T12:49:36.144Z,7.64
2017-11-18T12:52:03.699Z,7.57
2017-11-18T12:54:31.159Z,7.53
2017-11-18T12:56:58.707Z,7.56
2017-11-18T12:59:26.155Z,7.57
2017-11-18T13:01:53.625Z,7.46
2017-11-18T13:04:21.079Z,7.51
2017-11-18T13:06:48.553Z,7.50
2017-11-18T13:09:16.031Z,7.46
2017-11-18T13:11:43.537Z,7.45
2017-11-18T13:14:11.103Z,7.45
2017-11-18T13:16:38.581Z,7.56
2017-11-18T13:19:06.062Z,7.59
2017-11-18T13:21:33.596Z,7.67
2017-11-18T13:24:01.123Z,7.65
2017-11-18T13:26:28.668Z,7.57
2017-11-18T13:28:56.124Z,7.51
2017-11-18T13:31:23.611Z,7.51
2017-11-18T13:33:51.117Z,7.71
2017-11-18T13:36:18.638Z,7.56
2017-11-18T13:38:46.129Z,7.56
2017-11-18T13:41:13.583Z,7.55
2017-11-18T13:43:41.054Z,7.56
2017-11-18T13:46:08.546Z,7.55
2017-11-18T13:48:36.013Z,7.58
2017-11-18T13:51:03.469Z,7.59
2017-11-18T13:53:30.946Z,7.55
2017-11-18T13:55:58.395Z,7.87
2017-11-18T13:58:25.942Z,7.64
2017-11-18T14:00:53.396Z,7.62
2017-11-18T14:03:21.740Z,7.92
2017-11-18T14:05:49.199Z,7.79
2017-11-18T14:08:16.675Z,7.62
2017-11-18T14:10:44.150Z,7.57
2017-11-18T14:13:11.628Z,7.49
2017-11-18T14:15:39.101Z,7.66
2017-11-18T14:18:06.561Z,7.67
2017-11-18T14:20:34.072Z,7.60
2017-11-18T14:23:01.530Z,7.58
2017-11-18T14:25:29.091Z,7.61
2017-11-18T14:27:56.540Z,7.76
2017-11-18T14:30:24.089Z,7.84
2017-11-18T14:32:51.537Z,7.68
2017-11-18T14:35:19.010Z,7.56
2017-11-18T14:37:46.470Z,7.45
2017-11-18T14:40:14.042Z,7.46
2017-11-18T14:42:41.502Z,7.45
2017-11-18T14:45:08.992Z,7.56
2017-11-18T14:47:36.450Z,7.38
2017-11-18T14:50:03.990Z,7.39
2017-11-18T14:52:31.517Z,7.36
2017-11-18T14:54:58.972Z,7.24
2017-11-18T14:57:26.508Z,7.26
2017-11-18T14:59:53.962Z,7.20
2017-11-18T15:02:21.440Z,7.17
2017-11-18T15:04:48.890Z,7.09
2017-11-18T15:07:16.374Z,7.10
2017-11-18T15:09:43.830Z,7.11
2017-11-18T15:12:11.317Z,7.12
2017-11-18T15:18:05.511Z,7.02
2017-11-18T15:20:38.517Z,6.99
2017-11-18T15:26:19.118Z,6.74
2017-11-18T15:28:52.178Z,6.84
2017-11-18T15:31:25.221Z,6.81
2017-11-18T15:37:10.247Z,6.62
2017-11-18T15:39:37.715Z,6.69
2017-11-18T15:42:05.234Z,6.68
2017-11-18T15:47:25.019Z,6.59
2017-11-18T15:49:58.249Z,6.72
2017-11-18T15:55:31.922Z,6.78
2017-11-18T15:57:59.403Z,6.66
2017-11-18T16:00:31.431Z,6.61
2017-11-18T16:02:59.847Z,6.60
2017-11-18T16:05:27.675Z,6.62
2017-11-18T16:07:55.150Z,6.54
2017-11-18T16:10:22.725Z,6.62
2017-11-18T16:12:50.188Z,6.67
2017-11-18T16:15:17.674Z,6.57
2017-11-18T16:17:45.140Z,6.46
2017-11-18T16:20:12.612Z,6.91
2017-11-18T16:22:40.079Z,6.64
2017-11-18T16:25:07.558Z,6.65
2017-11-18T16:27:35.052Z,6.67
2017-11-18T16:30:02.522Z,6.68
2017-11-18T16:32:30.015Z,6.66
2017-11-18T16:34:57.504Z,6.52
2017-11-18T16:37:24.967Z,6.45
2017-11-18T16:39:52.470Z,6.55
2017-11-18T16:42:19.929Z,6.43
2017-11-18T16:44:47.429Z,6.47
2017-11-18T16:47:14.894Z,6.52
2017-11-18T16:49:42.377Z,6.42
2017-11-18T16:52:09.849Z,6.32
2017-11-18T16:54:37.300Z,6.23
2017-11-18T16:57:04.769Z,6.23
2017-11-18T16:59:32.222Z,6.27
2017-11-18T17:01:59.809Z,6.40
2017-11-18T17:04:27.357Z,6.38
2017-11-18T17:06:54.913Z,6.52
2017-11-18T17:09:22.365Z,6.46
2017-11-18T17:11:49.855Z,6.38
2017-11-18T17:14:17.310Z,6.29
2017-11-18T17:16:44.795Z,6.22
2017-11-18T17:19:12.306Z,6.13
2017-11-18T17:21:39.828Z,6.36
2017-11-18T17:24:07.287Z,6.30
2017-11-18T17:26:34.752Z,6.48
2017-11-18T17:29:02.196Z,6.60
2017-11-18T17:31:29.933Z,6.37
2017-11-18T17:33:57.409Z,6.56
2017-11-18T17:36:24.867Z,6.42
2017-11-18T17:38:52.366Z,6.63
2017-11-18T17:41:19.817Z,6.71
2017-11-18T17:43:47.440Z,6.79
2017-11-18T17:46:14.888Z,6.98
2017-11-18T17:48:42.349Z,6.83
2017-11-18T17:51:09.800Z,6.98
2017-11-18T17:53:37.276Z,6.89
2017-11-18T17:56:04.774Z,6.85
2017-11-18T17:58:32.250Z,6.78
2017-11-18T18:00:59.710Z,7.11
2017-11-18T18:03:27.219Z,7.02
2017-11-18T18:05:54.655Z,6.85
2017-11-18T18:08:22.122Z,6.91
2017-11-18T18:10:49.589Z,6.88
2017-11-18T18:13:17.062Z,6.87
2017-11-18T18:15:44.538Z,6.78
2017-11-18T18:18:12.064Z,6.91
2017-11-18T18:20:39.717Z,6.79
2017-11-18T18:23:07.256Z,6.87
2017-11-18T18:25:34.717Z,6.74
2017-11-18T18:28:02.169Z,6.91
2017-11-18T18:30:29.657Z,6.65
2017-11-18T18:32:57.114Z,6.59
2017-11-18T18:35:24.608Z,6.73
2017-11-18T18:37:52.066Z,6.71
2017-11-18T18:40:19.611Z,6.68
2017-11-18T18:42:47.192Z,6.72
2017-11-18T18:45:14.678Z,6.69
2017-11-18T18:47:42.144Z,6.65
2017-11-18T18:50:09.745Z,6.47
2017-11-18T18:52:37.218Z,6.50
2017-11-18T18:55:04.746Z,6.61
2017-11-18T18:57:32.301Z,6.50
2017-11-18T18:59:59.760Z,6.90
2017-11-18T19:02:27.326Z,6.71
2017-11-18T19:04:54.782Z,6.47
2017-11-18T19:07:22.328Z,6.65
2017-11-18T19:09:49.926Z,6.42
2017-11-18T19:12:17.434Z,6.64
2017-11-18T19:14:44.890Z,6.53
2017-11-18T19:17:12.332Z,6.50
2017-11-18T19:19:39.818Z,6.51
2017-11-18T19:22:07.376Z,6.46
2017-11-18T19:24:34.856Z,6.36
2017-11-18T19:27:02.393Z,6.37
2017-11-18T19:29:29.961Z,6.38
2017-11-18T19:31:57.421Z,6.66
2017-11-18T19:34:24.892Z,6.68
2017-11-18T19:36:52.384Z,6.60
2017-11-18T19:39:19.978Z,6.51
2017-11-18T19:41:47.426Z,6.35
2017-11-18T19:44:14.909Z,6.41
2017-11-18T19:46:42.449Z,6.45
2017-11-18T19:49:09.904Z,6.42
2017-11-18T19:51:37.379Z,6.53
2017-11-18T19:54:04.922Z,6.61
2017-11-18T19:56:32.424Z,6.62
2017-11-18T19:58:59.882Z,6.54
2017-11-18T20:01:27.397Z,6.59
2017-11-18T20:03:54.855Z,6.49
2017-11-18T20:06:22.330Z,6.64
2017-11-18T20:08:49.883Z,6.49
2017-11-18T20:11:17.363Z,6.57
2017-11-18T20:13:44.813Z,6.67
2017-11-18T20:16:12.337Z,6.52
2017-11-18T20:18:39.907Z,6.42
2017-11-18T20:21:07.370Z,6.38
2017-11-18T20:23:34.863Z,6.44
2017-11-18T20:26:02.359Z,6.46
2017-11-18T20:28:29.841Z,6.37
2017-11-18T20:30:57.303Z,6.41
2017-11-18T20:33:24.794Z,6.72
2017-11-18T20:35:52.253Z,6.45
2017-11-18T20:38:19.733Z,6.53
2017-11-18T20:40:47.311Z,6.50
2017-11-18T20:43:14.787Z,6.44
2017-11-18T20:45:42.329Z,6.41
2017-11-18T20:48:09.843Z,6.57
2017-11-18T20:50:37.349Z,6.43
2017-11-18T20:53:04.806Z,6.53
2017-11-18T20:55:32.297Z,6.36
2017-11-18T20:57:59.831Z,6.43
2017-11-18T21:00:27.310Z,6.34
2017-11-18T21:02:54.862Z,6.63
2017-11-18T21:05:22.366Z,6.60
2017-11-18T21:07:49.830Z,6.56
2017-11-18T21:10:17.309Z,6.48
2017-11-18T21:12:44.874Z,6.49
2017-11-18T21:15:12.374Z,6.57
2017-11-18T21:17:39.887Z,6.62
2017-11-18T21:20:07.367Z,6.59
2017-11-18T21:22:34.910Z,6.52
2017-11-18T21:25:02.509Z,6.57
2017-11-18T21:27:29.965Z,6.50
2017-11-18T21:29:57.422Z,6.59
2017-11-18T21:32:24.962Z,6.68
2017-11-18T21:34:52.409Z,6.66
2017-11-18T21:37:19.920Z,6.56
2017-11-18T21:39:47.378Z,6.70
2017-11-18T21:42:14.844Z,6.61
2017-11-18T21:44:42.299Z,6.59
2017-11-18T21:47:09.782Z,6.68
2017-11-18T21:49:37.224Z,6.67
2017-11-18T21:52:04.702Z,6.44
2017-11-18T21:54:32.170Z,6.35
2017-11-18T21:56:59.644Z,6.50
2017-11-18T21:59:27.120Z,6.45
2017-11-18T22:01:54.584Z,6.52
2017-11-18T22:04:22.048Z,6.57
2017-11-18T22:06:49.529Z,6.47
2017-11-18T22:09:17.097Z,6.50
2017-11-18T22:11:44.591Z,6.58
2017-11-18T22:14:12.043Z,6.60
2017-11-18T22:16:39.505Z,6.33
2017-11-18T22:19:07.006Z,6.70
2017-11-18T22:21:34.467Z,6.59
2017-11-18T22:24:01.937Z,6.62
2017-11-18T22:26:29.449Z,6.47
2017-11-18T22:28:56.926Z,6.49
2017-11-18T22:31:24.405Z,6.55
2017-11-18T22:33:51.868Z,6.65
2017-11-18T22:36:19.347Z,6.58
2017-11-18T22:38:46.842Z,6.48
2017-11-18T22:41:14.294Z,6.45
2017-11-18T22:43:41.751Z,6.24
2017-11-18T22:46:09.219Z,6.18
2017-11-18T22:48:36.685Z,6.19
2017-11-18T22:51:04.157Z,6.01
2017-11-18T22:53:31.621Z,6.14
2017-11-18T22:55:59.215Z,6.12
2017-11-18T22:58:26.676Z,6.30
2017-11-18T23:00:54.190Z,6.24
2017-11-18T23:03:21.650Z,6.40
2017-11-18T23:05:49.119Z,6.21
2017-11-18T23:08:16.581Z,6.28
2017-11-18T23:10:44.083Z,6.22
2017-11-18T23:13:11.566Z,6.32
2017-11-18T23:15:39.120Z,6.26
2017-11-18T23:18:06.706Z,6.29
2017-11-18T23:20:34.161Z,6.29
2017-11-18T23:23:01.673Z,6.28
2017-11-18T23:25:29.174Z,6.42
2017-11-18T23:27:56.641Z,6.55
2017-11-18T23:30:24.184Z,6.29
2017-11-18T23:32:51.685Z,6.32
2017-11-18T23:35:19.141Z,6.32
2017-11-18T23:37:46.637Z,6.28
2017-11-18T23:40:14.085Z,6.33
2017-11-18T23:42:41.532Z,6.57
2017-11-18T23:45:09.030Z,6.47
2017-11-18T23:47:36.498Z,6.53
2017-11-18T23:50:03.979Z,6.60
2017-11-18T23:52:31.446Z,6.63
2017-11-18T23:54:58.949Z,6.46
2017-11-18T23:57:26.397Z,6.38
2017-11-18T23:59:53.859Z,6.53
